sensor_id;sensor_type;location;lat;lon;timestamp;pressure;altitude;pressure_sealevel;temperature;humidity
11038;BME280;5572;49.540;11.932;2023-04-04T02:44:38;98186.19;;;-1.26;100.00
11038;BME280;5572;49.540;11.932;2023-04-04T02:47:08;98268.69;;;-1.51;100.00
11038;BME280;5572;49.540;11.932;2023-04-04T02:49:38;98268.00;;;-1.45;100.00
11038;BME280;5572;49.540;11.932;2023-04-04T02:52:07;98253.34;;;-1.33;100.00
11038;BME280;5572;49.540;11.932;2023-04-04T02:54:35;98285.75;;;-1.54;100.00
11038;BME280;5572;49.540;11.932;2023-04-04T02:57:04;98290.94;;;-1.60;100.00
11038;BME280;5572;49.540;11.932;2023-04-04T02:59:32;98294.06;;;-1.65;100.00
11038;BME280;5572;49.540;11.932;2023-04-04T03:02:02;98303.00;;;-1.58;100.00
11038;BME280;5572;49.540;11.932;2023-04-04T03:04:30;98297.03;;;-1.60;100.00
11038;BME280;5572;49.540;11.932;2023-04-04T03:06:59;98306.69;;;-1.74;100.00
11038;BME280;5572;49.540;11.932;2023-04-04T03:09:28;98303.19;;;-1.67;100.00
11038;BME280;5572;49.540;11.932;2023-04-04T03:14:36;98325.31;;;-1.98;100.00
11038;BME280;5572;49.540;11.932;2023-04-04T03:17:07;98339.72;;;-2.01;100.00
11038;BME280;5572;49.540;11.932;2023-04-04T03:19:35;98341.53;;;-2.09;100.00
11038;BME280;5572;49.540;11.932;2023-04-04T03:22:02;98341.72;;;-2.19;100.00
11038;BME280;5572;49.540;11.932;2023-04-04T03:24:30;98341.06;;;-2.29;100.00
11038;BME280;5572;49.540;11.932;2023-04-04T03:26:59;98328.66;;;-2.20;100.00
11038;BME280;5572;49.540;11.932;2023-04-04T03:29:27;98325.47;;;-2.08;100.00
11038;BME280;5572;49.540;11.932;2023-04-04T03:31:55;98337.59;;;-2.05;100.00
11038;BME280;5572;49.540;11.932;2023-04-04T03:34:24;98330.63;;;-2.06;100.00
11038;BME280;5572;49.540;11.932;2023-04-04T03:36:52;98315.69;;;-1.91;100.00
11038;BME280;5572;49.540;11.932;2023-04-04T03:39:19;98271.63;;;-1.84;100.00
11038;BME280;5572;49.540;11.932;2023-04-04T03:41:47;98290.25;;;-2.24;100.00
11038;BME280;5572;49.540;11.932;2023-04-04T03:44:15;98323.00;;;-2.09;100.00
11038;BME280;5572;49.540;11.932;2023-04-04T03:46:42;98320.03;;;-2.14;100.00
11038;BME280;5572;49.540;11.932;2023-04-04T03:49:10;98319.38;;;-2.24;100.00
11038;BME280;5572;49.540;11.932;2023-04-04T03:51:39;98323.03;;;-2.25;100.00
11038;BME280;5572;49.540;11.932;2023-04-04T03:54:07;98305.66;;;-2.12;100.00
11038;BME280;5572;49.540;11.932;2023-04-04T03:56:35;98307.44;;;-2.12;100.00
11038;BME280;5572;49.540;11.932;2023-04-04T03:59:03;98303.31;;;-2.07;100.00
11038;BME280;5572;49.540;11.932;2023-04-04T04:01:31;98310.59;;;-2.17;100.00
11038;BME280;5572;49.540;11.932;2023-04-04T04:03:58;98307.66;;;-2.30;100.00
11038;BME280;5572;49.540;11.932;2023-04-04T04:06:27;98305.16;;;-2.23;100.00
11038;BME280;5572;49.540;11.932;2023-04-04T04:08:57;98305.66;;;-2.28;100.00
11038;BME280;5572;49.540;11.932;2023-04-04T04:11:26;98303.50;;;-2.32;100.00
11038;BME280;5572;49.540;11.932;2023-04-04T04:13:54;98296.91;;;-2.36;100.00
11038;BME280;5572;49.540;11.932;2023-04-04T04:16:21;98290.31;;;-2.56;100.00
11038;BME280;5572;49.540;11.932;2023-04-04T04:18:49;98295.75;;;-2.58;100.00
11038;BME280;5572;49.540;11.932;2023-04-04T04:21:16;98284.50;;;-2.44;100.00
11038;BME280;5572;49.540;11.932;2023-04-04T04:23:44;98284.84;;;-2.62;100.00
11038;BME280;5572;49.540;11.932;2023-04-04T04:26:13;98280.69;;;-2.49;100.00
11038;BME280;5572;49.540;11.932;2023-04-04T04:28:41;98259.53;;;-2.49;100.00
11038;BME280;5572;49.540;11.932;2023-04-04T04:31:09;98274.41;;;-2.72;100.00
11038;BME280;5572;49.540;11.932;2023-04-04T04:33:36;98271.59;;;-2.78;100.00
11038;BME280;5572;49.540;11.932;2023-04-04T04:36:04;98270.94;;;-2.41;100.00
11038;BME280;5572;49.540;11.932;2023-04-04T04:38:31;98238.03;;;-2.62;100.00
11038;BME280;5572;49.540;11.932;2023-04-04T04:40:59;98260.84;;;-2.61;100.00
11038;BME280;5572;49.540;11.932;2023-04-04T04:43:27;98259.19;;;-2.38;100.00
11038;BME280;5572;49.540;11.932;2023-04-04T04:45:53;98230.56;;;-2.43;100.00
11038;BME280;5572;49.540;11.932;2023-04-04T04:48:20;98232.38;;;-2.43;100.00
11038;BME280;5572;49.540;11.932;2023-04-04T04:50:47;98223.44;;;-2.42;100.00
11038;BME280;5572;49.540;11.932;2023-04-04T04:53:14;98214.03;;;-2.53;100.00
11038;BME280;5572;49.540;11.932;2023-04-04T04:55:40;98228.56;;;-2.49;100.00
11038;BME280;5572;49.540;11.932;2023-04-04T04:58:08;98219.00;;;-2.50;100.00
11038;BME280;5572;49.540;11.932;2023-04-04T05:00:36;98215.19;;;-2.39;100.00
11038;BME280;5572;49.540;11.932;2023-04-04T05:03:03;98212.06;;;-2.51;100.00
11038;BME280;5572;49.540;11.932;2023-04-04T05:05:31;98198.31;;;-2.46;100.00
11038;BME280;5572;49.540;11.932;2023-04-04T05:07:57;98195.97;;;-2.41;100.00
11038;BME280;5572;49.540;11.932;2023-04-04T05:10:24;98175.78;;;-2.26;100.00
11038;BME280;5572;49.540;11.932;2023-04-04T05:12:50;98180.88;;;-2.25;100.00
11038;BME280;5572;49.540;11.932;2023-04-04T05:15:17;98174.22;;;-2.13;100.00
11038;BME280;5572;49.540;11.932;2023-04-04T05:17:46;98167.94;;;-1.81;100.00
11038;BME280;5572;49.540;11.932;2023-04-04T05:20:13;98152.75;;;-1.87;100.00
11038;BME280;5572;49.540;11.932;2023-04-04T05:22:41;98160.69;;;-1.57;100.00
11038;BME280;5572;49.540;11.932;2023-04-04T05:25:08;98147.34;;;-0.16;100.00
11038;BME280;5572;49.540;11.932;2023-04-04T05:27:35;98126.00;;;1.04;100.00
11038;BME280;5572;49.540;11.932;2023-04-04T05:30:02;98056.53;;;1.67;100.00
11038;BME280;5572;49.540;11.932;2023-04-04T05:32:30;98001.59;;;2.32;100.00
11038;BME280;5572;49.540;11.932;2023-04-04T05:34:58;97950.06;;;3.02;100.00
11038;BME280;5572;49.540;11.932;2023-04-04T05:37:25;97888.31;;;3.80;100.00
11038;BME280;5572;49.540;11.932;2023-04-04T05:39:51;97839.75;;;4.14;100.00
11038;BME280;5572;49.540;11.932;2023-04-04T05:42:19;97765.84;;;4.37;100.00
11038;BME280;5572;49.540;11.932;2023-04-04T05:44:46;97734.25;;;4.45;100.00
11038;BME280;5572;49.540;11.932;2023-04-04T05:47:12;97644.88;;;4.64;100.00
11038;BME280;5572;49.540;11.932;2023-04-04T05:49:39;97648.06;;;4.55;100.00
11038;BME280;5572;49.540;11.932;2023-04-04T05:52:06;97584.59;;;5.14;100.00
11038;BME280;5572;49.540;11.932;2023-04-04T05:54:34;97525.84;;;5.01;100.00
11038;BME280;5572;49.540;11.932;2023-04-04T05:57:01;97581.28;;;3.95;100.00
11038;BME280;5572;49.540;11.932;2023-04-04T05:59:27;97522.84;;;5.89;100.00
11038;BME280;5572;49.540;11.932;2023-04-04T06:01:54;97423.25;;;6.13;100.00
11038;BME280;5572;49.540;11.932;2023-04-04T06:04:21;97341.13;;;6.78;100.00
11038;BME280;5572;49.540;11.932;2023-04-04T06:06:47;97305.75;;;6.15;100.00
11038;BME280;5572;49.540;11.932;2023-04-04T06:09:15;97448.84;;;3.27;100.00
11038;BME280;5572;49.540;11.932;2023-04-04T06:11:41;97595.09;;;3.56;100.00
11038;BME280;5572;49.540;11.932;2023-04-04T06:14:08;97402.75;;;6.52;100.00
11038;BME280;5572;49.540;11.932;2023-04-04T06:16:35;97256.44;;;7.40;100.00
11038;BME280;5572;49.540;11.932;2023-04-04T06:19:02;97151.03;;;7.11;100.00
11038;BME280;5572;49.540;11.932;2023-04-04T06:21:28;97212.56;;;5.95;100.00
11038;BME280;5572;49.540;11.932;2023-04-04T06:23:55;97291.09;;;5.62;100.00
11038;BME280;5572;49.540;11.932;2023-04-04T06:26:23;97182.56;;;5.81;100.00
11038;BME280;5572;49.540;11.932;2023-04-04T06:28:50;97318.63;;;5.86;100.00
11038;BME280;5572;49.540;11.932;2023-04-04T06:31:17;97124.75;;;5.57;100.00
11038;BME280;5572;49.540;11.932;2023-04-04T06:33:44;97203.00;;;7.74;100.00
11038;BME280;5572;49.540;11.932;2023-04-04T06:36:10;97281.94;;;5.47;100.00
11038;BME280;5572;49.540;11.932;2023-04-04T06:38:37;97030.03;;;8.30;100.00
11038;BME280;5572;49.540;11.932;2023-04-04T06:41:03;96876.28;;;8.96;100.00
11038;BME280;5572;49.540;11.932;2023-04-04T06:43:31;96855.16;;;9.43;100.00
11038;BME280;5572;49.540;11.932;2023-04-04T06:45:58;97043.97;;;6.51;100.00
11038;BME280;5572;49.540;11.932;2023-04-04T06:48:25;97356.44;;;5.45;100.00
11038;BME280;5572;49.540;11.932;2023-04-04T06:50:51;97548.06;;;2.82;100.00
11038;BME280;5572;49.540;11.932;2023-04-04T06:53:18;97554.16;;;2.89;100.00
11038;BME280;5572;49.540;11.932;2023-04-04T06:55:44;97607.16;;;2.54;100.00
11038;BME280;5572;49.540;11.932;2023-04-04T06:58:11;97645.78;;;1.82;100.00
11038;BME280;5572;49.540;11.932;2023-04-04T07:00:39;97661.34;;;1.85;100.00
11038;BME280;5572;49.540;11.932;2023-04-04T07:03:05;97673.44;;;2.57;100.00
11038;BME280;5572;49.540;11.932;2023-04-04T07:05:32;97578.91;;;4.05;100.00
11038;BME280;5572;49.540;11.932;2023-04-04T07:07:58;97508.22;;;3.05;100.00
11038;BME280;5572;49.540;11.932;2023-04-04T07:10:25;97519.53;;;3.00;100.00
11038;BME280;5572;49.540;11.932;2023-04-04T07:12:52;97642.13;;;1.70;100.00
11038;BME280;5572;49.540;11.932;2023-04-04T07:15:18;97642.97;;;2.71;100.00
11038;BME280;5572;49.540;11.932;2023-04-04T07:17:46;97344.63;;;7.38;100.00
11038;BME280;5572;49.540;11.932;2023-04-04T07:20:13;97143.00;;;6.09;100.00
11038;BME280;5572;49.540;11.932;2023-04-04T07:22:40;97513.81;;;2.72;100.00
11038;BME280;5572;49.540;11.932;2023-04-04T07:25:08;97614.78;;;3.37;100.00
11038;BME280;5572;49.540;11.932;2023-04-04T07:27:36;97476.53;;;4.27;100.00
11038;BME280;5572;49.540;11.932;2023-04-04T07:30:03;97386.84;;;4.24;100.00
11038;BME280;5572;49.540;11.932;2023-04-04T07:32:29;97613.09;;;3.18;100.00
11038;BME280;5572;49.540;11.932;2023-04-04T07:34:57;97436.31;;;4.33;100.00
11038;BME280;5572;49.540;11.932;2023-04-04T07:37:24;97390.56;;;5.49;100.00
11038;BME280;5572;49.540;11.932;2023-04-04T07:39:51;97206.22;;;6.76;100.00
11038;BME280;5572;49.540;11.932;2023-04-04T07:42:17;97259.94;;;6.38;100.00
11038;BME280;5572;49.540;11.932;2023-04-04T07:44:47;97383.25;;;4.19;100.00
11038;BME280;5572;49.540;11.932;2023-04-04T07:47:13;97554.25;;;4.03;100.00
11038;BME280;5572;49.540;11.932;2023-04-04T07:49:40;97491.22;;;4.36;100.00
11038;BME280;5572;49.540;11.932;2023-04-04T07:52:08;97429.22;;;5.03;100.00
11038;BME280;5572;49.540;11.932;2023-04-04T07:54:35;97605.41;;;3.28;100.00
11038;BME280;5572;49.540;11.932;2023-04-04T07:57:02;97622.16;;;3.41;100.00
11038;BME280;5572;49.540;11.932;2023-04-04T08:07:17;97682.81;;;2.73;100.00
11038;BME280;5572;49.540;11.932;2023-04-04T08:09:43;97710.84;;;2.45;100.00
11038;BME280;5572;49.540;11.932;2023-04-04T08:12:10;97724.78;;;2.53;100.00
11038;BME280;5572;49.540;11.932;2023-04-04T08:48:43;97677.88;;;2.70;100.00
11038;BME280;5572;49.540;11.932;2023-04-04T08:51:11;97634.25;;;2.89;100.00
11038;BME280;5572;49.540;11.932;2023-04-04T08:53:39;97645.94;;;3.67;100.00
11038;BME280;5572;49.540;11.932;2023-04-04T08:56:06;97619.78;;;2.72;100.00
11038;BME280;5572;49.540;11.932;2023-04-04T08:58:32;97636.59;;;3.58;100.00
11038;BME280;5572;49.540;11.932;2023-04-04T09:00:59;97545.94;;;4.40;100.00
11038;BME280;5572;49.540;11.932;2023-04-04T09:03:28;97602.97;;;3.69;100.00
11038;BME280;5572;49.540;11.932;2023-04-04T09:05:58;97596.09;;;3.37;100.00
11038;BME280;5572;49.540;11.932;2023-04-04T09:08:25;97554.69;;;3.64;100.00
11038;BME280;5572;49.540;11.932;2023-04-04T09:10:52;97562.16;;;2.89;100.00
11038;BME280;5572;49.540;11.932;2023-04-04T09:13:22;97644.69;;;2.90;100.00
11038;BME280;5572;49.540;11.932;2023-04-04T09:15:51;97578.75;;;3.64;100.00
11038;BME280;5572;49.540;11.932;2023-04-04T09:18:18;97477.09;;;3.70;100.00
11038;BME280;5572;49.540;11.932;2023-04-04T09:20:45;97597.16;;;3.54;100.00
11038;BME280;5572;49.540;11.932;2023-04-04T09:23:17;97571.56;;;3.82;100.00
11038;BME280;5572;49.540;11.932;2023-04-04T09:25:45;97564.28;;;3.71;100.00
11038;BME280;5572;49.540;11.932;2023-04-04T09:28:13;97559.59;;;3.49;100.00
11038;BME280;5572;49.540;11.932;2023-04-04T09:30:40;97547.03;;;3.49;100.00
11038;BME280;5572;49.540;11.932;2023-04-04T09:33:08;97545.19;;;4.51;100.00
11038;BME280;5572;49.540;11.932;2023-04-04T09:35:36;97540.50;;;3.99;100.00
11038;BME280;5572;49.540;11.932;2023-04-04T09:38:04;97560.47;;;5.14;100.00
11038;BME280;5572;49.540;11.932;2023-04-04T09:40:33;97570.66;;;4.24;100.00
11038;BME280;5572;49.540;11.932;2023-04-04T09:43:00;97554.41;;;3.90;100.00
11038;BME280;5572;49.540;11.932;2023-04-04T09:45:29;97534.94;;;3.47;100.00
11038;BME280;5572;49.540;11.932;2023-04-04T09:47:56;97495.16;;;4.22;100.00
11038;BME280;5572;49.540;11.932;2023-04-04T09:50:26;97579.06;;;3.07;100.00
11038;BME280;5572;49.540;11.932;2023-04-04T09:52:56;97551.31;;;3.33;100.00
11038;BME280;5572;49.540;11.932;2023-04-04T09:55:30;97578.69;;;4.06;100.00
11038;BME280;5572;49.540;11.932;2023-04-04T09:57:58;97533.44;;;4.52;100.00
11038;BME280;5572;49.540;11.932;2023-04-04T10:00:28;97528.34;;;4.62;100.00
11038;BME280;5572;49.540;11.932;2023-04-04T10:02:56;97508.09;;;4.07;100.00
11038;BME280;5572;49.540;11.932;2023-04-04T10:05:23;97681.41;;;3.32;100.00
11038;BME280;5572;49.540;11.932;2023-04-04T10:07:50;97656.28;;;3.64;100.00
11038;BME280;5572;49.540;11.932;2023-04-04T10:10:16;97755.72;;;3.72;100.00
11038;BME280;5572;49.540;11.932;2023-04-04T10:12:44;97764.69;;;4.09;100.00
11038;BME280;5572;49.540;11.932;2023-04-04T10:15:14;97747.25;;;3.75;100.00
11038;BME280;5572;49.540;11.932;2023-04-04T10:17:41;97796.22;;;4.00;100.00
11038;BME280;5572;49.540;11.932;2023-04-04T10:20:09;97776.00;;;3.80;100.00
11038;BME280;5572;49.540;11.932;2023-04-04T10:22:37;97735.06;;;3.86;100.00
11038;BME280;5572;49.540;11.932;2023-04-04T10:25:06;97740.00;;;4.07;100.00
11038;BME280;5572;49.540;11.932;2023-04-04T10:27:33;97719.38;;;3.89;100.00
11038;BME280;5572;49.540;11.932;2023-04-04T10:30:02;97711.81;;;4.64;100.00
11038;BME280;5572;49.540;11.932;2023-04-04T10:32:37;97602.03;;;4.64;100.00
11038;BME280;5572;49.540;11.932;2023-04-04T10:35:08;97738.72;;;3.91;100.00
11038;BME280;5572;49.540;11.932;2023-04-04T10:37:39;97765.72;;;3.83;100.00
11038;BME280;5572;49.540;11.932;2023-04-04T10:40:09;97791.53;;;3.71;100.00
11038;BME280;5572;49.540;11.932;2023-04-04T10:42:41;97772.88;;;3.89;100.00
11038;BME280;5572;49.540;11.932;2023-04-04T10:45:09;97767.41;;;4.02;100.00
11038;BME280;5572;49.540;11.932;2023-04-04T10:47:38;97810.53;;;3.88;100.00
11038;BME280;5572;49.540;11.932;2023-04-04T10:50:06;97847.81;;;4.07;100.00
11038;BME280;5572;49.540;11.932;2023-04-04T10:52:35;97823.31;;;4.10;100.00
11038;BME280;5572;49.540;11.932;2023-04-04T10:55:04;97845.00;;;4.26;100.00
11038;BME280;5572;49.540;11.932;2023-04-04T10:57:32;97813.16;;;4.19;100.00
11038;BME280;5572;49.540;11.932;2023-04-04T11:00:00;97790.00;;;4.06;100.00
11038;BME280;5572;49.540;11.932;2023-04-04T11:02:47;97768.13;;;3.67;100.00
11038;BME280;5572;49.540;11.932;2023-04-04T11:05:18;97782.84;;;4.00;100.00
11038;BME280;5572;49.540;11.932;2023-04-04T11:07:47;97829.31;;;4.30;100.00
11038;BME280;5572;49.540;11.932;2023-04-04T11:10:15;97844.09;;;4.57;100.00
11038;BME280;5572;49.540;11.932;2023-04-04T11:12:51;97782.25;;;4.22;100.00
11038;BME280;5572;49.540;11.932;2023-04-04T11:15:20;97788.16;;;4.07;100.00
11038;BME280;5572;49.540;11.932;2023-04-04T11:18:05;97791.84;;;4.30;100.00
11038;BME280;5572;49.540;11.932;2023-04-04T11:20:33;97818.44;;;3.70;100.00
11038;BME280;5572;49.540;11.932;2023-04-04T11:23:05;97787.31;;;4.06;100.00
11038;BME280;5572;49.540;11.932;2023-04-04T11:25:34;97802.28;;;4.56;100.00
11038;BME280;5572;49.540;11.932;2023-04-04T11:28:07;97821.16;;;4.67;100.00
11038;BME280;5572;49.540;11.932;2023-04-04T11:30:38;97726.81;;;4.83;100.00
11038;BME280;5572;49.540;11.932;2023-04-04T11:33:10;97745.41;;;4.42;100.00
11038;BME280;5572;49.540;11.932;2023-04-04T11:35:38;97674.47;;;4.51;100.00
11038;BME280;5572;49.540;11.932;2023-04-04T11:38:13;97678.97;;;4.87;100.00
11038;BME280;5572;49.540;11.932;2023-04-04T11:40:41;97586.06;;;4.87;100.00
11038;BME280;5572;49.540;11.932;2023-04-04T11:43:09;97576.06;;;4.94;100.00
11038;BME280;5572;49.540;11.932;2023-04-04T11:45:37;97602.22;;;5.44;100.00
11038;BME280;5572;49.540;11.932;2023-04-04T11:48:10;97545.44;;;5.24;100.00
11038;BME280;5572;49.540;11.932;2023-04-04T11:50:39;97559.03;;;4.89;100.00
11038;BME280;5572;49.540;11.932;2023-04-04T11:53:06;97632.22;;;5.01;100.00
11038;BME280;5572;49.540;11.932;2023-04-04T11:55:38;97619.41;;;4.73;100.00
11038;BME280;5572;49.540;11.932;2023-04-04T11:58:07;97622.13;;;4.85;100.00
11038;BME280;5572;49.540;11.932;2023-04-04T12:00:36;97776.97;;;4.76;100.00
11038;BME280;5572;49.540;11.932;2023-04-04T12:03:05;97725.56;;;4.50;100.00
11038;BME280;5572;49.540;11.932;2023-04-04T12:05:34;97762.13;;;4.56;100.00
11038;BME280;5572;49.540;11.932;2023-04-04T12:08:02;97774.78;;;4.49;100.00
11038;BME280;5572;49.540;11.932;2023-04-04T12:10:30;97779.22;;;4.37;100.00
11038;BME280;5572;49.540;11.932;2023-04-04T12:12:57;97786.06;;;4.33;100.00
11038;BME280;5572;49.540;11.932;2023-04-04T12:15:26;97789.63;;;4.27;100.00
11038;BME280;5572;49.540;11.932;2023-04-04T12:17:53;97816.75;;;4.30;100.00
11038;BME280;5572;49.540;11.932;2023-04-04T12:20:21;97832.59;;;4.32;100.00
11038;BME280;5572;49.540;11.932;2023-04-04T12:22:50;97823.91;;;4.36;100.00
11038;BME280;5572;49.540;11.932;2023-04-04T12:25:19;97766.56;;;5.15;100.00
11038;BME280;5572;49.540;11.932;2023-04-04T12:27:47;97767.31;;;5.22;100.00
11038;BME280;5572;49.540;11.932;2023-04-04T12:30:14;97630.38;;;5.99;100.00
11038;BME280;5572;49.540;11.932;2023-04-04T12:32:42;97532.56;;;6.18;100.00
11038;BME280;5572;49.540;11.932;2023-04-04T12:35:09;97495.38;;;5.25;100.00
11038;BME280;5572;49.540;11.932;2023-04-04T12:37:37;97310.78;;;7.42;100.00
11038;BME280;5572;49.540;11.932;2023-04-04T12:40:06;97359.81;;;5.80;100.00
11038;BME280;5572;49.540;11.932;2023-04-04T12:42:36;97239.53;;;7.70;100.00
11038;BME280;5572;49.540;11.932;2023-04-04T12:45:03;97397.91;;;5.93;100.00
11038;BME280;5572;49.540;11.932;2023-04-04T12:47:32;97339.75;;;5.43;100.00
11038;BME280;5572;49.540;11.932;2023-04-04T12:49:59;97558.84;;;5.24;100.00
11038;BME280;5572;49.540;11.932;2023-04-04T12:52:27;97488.03;;;5.43;100.00
11038;BME280;5572;49.540;11.932;2023-04-04T12:54:57;97597.00;;;5.61;100.00
11038;BME280;5572;49.540;11.932;2023-04-04T12:57:26;97562.47;;;6.10;100.00
11038;BME280;5572;49.540;11.932;2023-04-04T12:59:54;97552.88;;;5.00;100.00
11038;BME280;5572;49.540;11.932;2023-04-04T13:02:21;97651.50;;;4.91;100.00
11038;BME280;5572;49.540;11.932;2023-04-04T13:04:51;97546.97;;;6.68;100.00
11038;BME280;5572;49.540;11.932;2023-04-04T13:07:20;97476.97;;;6.58;100.00
11038;BME280;5572;49.540;11.932;2023-04-04T13:09:51;97398.78;;;7.89;100.00
11038;BME280;5572;49.540;11.932;2023-04-04T13:12:18;97349.59;;;6.54;100.00
11038;BME280;5572;49.540;11.932;2023-04-04T13:15:02;97595.44;;;6.33;100.00
11038;BME280;5572;49.540;11.932;2023-04-04T13:17:44;97728.50;;;6.29;100.00
11038;BME280;5572;49.540;11.932;2023-04-04T13:20:12;97574.25;;;5.52;100.00
11038;BME280;5572;49.540;11.932;2023-04-04T13:22:39;97465.25;;;6.64;100.00
11038;BME280;5572;49.540;11.932;2023-04-04T13:25:07;97557.94;;;5.76;100.00
11038;BME280;5572;49.540;11.932;2023-04-04T13:27:34;97639.91;;;5.61;100.00
11038;BME280;5572;49.540;11.932;2023-04-04T13:30:03;97652.97;;;5.16;100.00
11038;BME280;5572;49.540;11.932;2023-04-04T13:32:32;97690.75;;;5.15;100.00
11038;BME280;5572;49.540;11.932;2023-04-04T13:35:05;97729.22;;;5.61;100.00
11038;BME280;5572;49.540;11.932;2023-04-04T13:37:32;97606.41;;;6.71;100.00
11038;BME280;5572;49.540;11.932;2023-04-04T13:39:59;97355.34;;;6.79;100.00
11038;BME280;5572;49.540;11.932;2023-04-04T13:42:26;97419.97;;;5.84;100.00
11038;BME280;5572;49.540;11.932;2023-04-04T13:44:55;97351.00;;;7.10;100.00
11038;BME280;5572;49.540;11.932;2023-04-04T13:47:24;97237.13;;;7.43;100.00
11038;BME280;5572;49.540;11.932;2023-04-04T13:49:52;97247.81;;;7.64;100.00
11038;BME280;5572;49.540;11.932;2023-04-04T13:52:18;97460.69;;;6.20;100.00
11038;BME280;5572;49.540;11.932;2023-04-04T13:54:45;97555.09;;;7.00;100.00
11038;BME280;5572;49.540;11.932;2023-04-04T13:57:11;97458.56;;;7.32;100.00
11038;BME280;5572;49.540;11.932;2023-04-04T13:59:38;97377.25;;;5.94;100.00
11038;BME280;5572;49.540;11.932;2023-04-04T14:02:04;97423.97;;;5.81;100.00
11038;BME280;5572;49.540;11.932;2023-04-04T14:04:32;97437.09;;;6.82;100.00
11038;BME280;5572;49.540;11.932;2023-04-04T14:07:00;97362.78;;;7.95;100.00
11038;BME280;5572;49.540;11.932;2023-04-04T14:09:26;97107.75;;;7.75;100.00
11038;BME280;5572;49.540;11.932;2023-04-04T14:11:53;97397.66;;;7.85;100.00
11038;BME280;5572;49.540;11.932;2023-04-04T14:14:20;97424.19;;;7.55;100.00
11038;BME280;5572;49.540;11.932;2023-04-04T14:16:47;97493.66;;;7.42;100.00
11038;BME280;5572;49.540;11.932;2023-04-04T14:19:13;97202.00;;;8.53;100.00
11038;BME280;5572;49.540;11.932;2023-04-04T14:21:41;97081.19;;;8.91;100.00
11038;BME280;5572;49.540;11.932;2023-04-04T14:24:08;97089.78;;;7.81;100.00
11038;BME280;5572;49.540;11.932;2023-04-04T14:26:34;97141.84;;;7.65;100.00
11038;BME280;5572;49.540;11.932;2023-04-04T14:29:02;97247.47;;;7.82;100.00
11038;BME280;5572;49.540;11.932;2023-04-04T14:31:28;97315.66;;;5.98;100.00
11038;BME280;5572;49.540;11.932;2023-04-04T14:33:58;97521.75;;;6.13;100.00
11038;BME280;5572;49.540;11.932;2023-04-04T14:36:25;97385.56;;;6.36;100.00
11038;BME280;5572;49.540;11.932;2023-04-04T14:38:53;97349.06;;;6.89;100.00
11038;BME280;5572;49.540;11.932;2023-04-04T14:41:20;97331.19;;;6.46;100.00
11038;BME280;5572;49.540;11.932;2023-04-04T15:27:46;97455.66;;;5.73;100.00
11038;BME280;5572;49.540;11.932;2023-04-04T15:53:31;97662.34;;;6.12;100.00
11038;BME280;5572;49.540;11.932;2023-04-04T15:55:58;97600.28;;;6.08;100.00
11038;BME280;5572;49.540;11.932;2023-04-04T15:58:26;97604.38;;;5.77;100.00
11038;BME280;5572;49.540;11.932;2023-04-04T16:00:52;97629.34;;;5.89;100.00
11038;BME280;5572;49.540;11.932;2023-04-04T16:03:20;97548.41;;;5.46;100.00
11038;BME280;5572;49.540;11.932;2023-04-04T16:05:48;97604.13;;;5.67;100.00
11038;BME280;5572;49.540;11.932;2023-04-04T16:08:14;97646.13;;;5.84;100.00
11038;BME280;5572;49.540;11.932;2023-04-04T16:10:42;97595.59;;;5.58;100.00
11038;BME280;5572;49.540;11.932;2023-04-04T16:13:09;97606.53;;;5.45;100.00
11038;BME280;5572;49.540;11.932;2023-04-04T16:15:36;97554.09;;;5.49;100.00
11038;BME280;5572;49.540;11.932;2023-04-04T16:18:02;97490.00;;;5.36;100.00
11038;BME280;5572;49.540;11.932;2023-04-04T16:20:29;97451.06;;;5.57;100.00
11038;BME280;5572;49.540;11.932;2023-04-04T16:22:56;97473.06;;;5.82;100.00
11038;BME280;5572;49.540;11.932;2023-04-04T16:25:22;97353.34;;;6.36;100.00
11038;BME280;5572;49.540;11.932;2023-04-04T16:27:50;97251.09;;;6.59;100.00
11038;BME280;5572;49.540;11.932;2023-04-04T16:30:17;97251.22;;;6.48;100.00
11038;BME280;5572;49.540;11.932;2023-04-04T16:32:43;97249.69;;;6.73;100.00
11038;BME280;5572;49.540;11.932;2023-04-04T16:35:11;97243.66;;;6.82;100.00
11038;BME280;5572;49.540;11.932;2023-04-04T16:37:38;97242.34;;;6.64;100.00
11038;BME280;5572;49.540;11.932;2023-04-04T16:40:06;97373.66;;;6.32;100.00
11038;BME280;5572;49.540;11.932;2023-04-04T16:42:32;97464.88;;;6.16;100.00
11038;BME280;5572;49.540;11.932;2023-04-04T16:45:00;97542.22;;;5.91;100.00
11038;BME280;5572;49.540;11.932;2023-04-04T16:47:27;97520.88;;;5.85;100.00
11038;BME280;5572;49.540;11.932;2023-04-04T16:49:54;97653.56;;;5.71;100.00
11038;BME280;5572;49.540;11.932;2023-04-04T16:52:20;97686.09;;;5.63;100.00
11038;BME280;5572;49.540;11.932;2023-04-04T16:54:47;97684.34;;;5.57;100.00
11038;BME280;5572;49.540;11.932;2023-04-04T16:57:13;97609.72;;;5.54;100.00
11038;BME280;5572;49.540;11.932;2023-04-04T16:59:40;97590.13;;;5.53;100.00
11038;BME280;5572;49.540;11.932;2023-04-04T17:02:08;97684.63;;;5.37;100.00
11038;BME280;5572;49.540;11.932;2023-04-04T17:04:35;97656.88;;;5.32;100.00
11038;BME280;5572;49.540;11.932;2023-04-04T17:07:03;97690.13;;;5.13;100.00
11038;BME280;5572;49.540;11.932;2023-04-04T17:09:30;97738.81;;;5.28;100.00
11038;BME280;5572;49.540;11.932;2023-04-04T17:11:58;97758.69;;;5.20;100.00
11038;BME280;5572;49.540;11.932;2023-04-04T17:14:25;97780.13;;;5.20;100.00
11038;BME280;5572;49.540;11.932;2023-04-04T17:16:53;97766.47;;;4.93;100.00
11038;BME280;5572;49.540;11.932;2023-04-04T17:19:21;97774.66;;;4.80;100.00
11038;BME280;5572;49.540;11.932;2023-04-04T17:21:49;97819.28;;;4.68;100.00
11038;BME280;5572;49.540;11.932;2023-04-04T17:24:16;97770.72;;;4.64;100.00
11038;BME280;5572;49.540;11.932;2023-04-04T17:26:43;97816.59;;;4.68;100.00
11038;BME280;5572;49.540;11.932;2023-04-04T17:29:10;97815.00;;;4.60;100.00
11038;BME280;5572;49.540;11.932;2023-04-04T17:31:37;97821.25;;;4.36;100.00
11038;BME280;5572;49.540;11.932;2023-04-04T17:34:04;97862.75;;;4.21;100.00
11038;BME280;5572;49.540;11.932;2023-04-04T17:36:32;97878.63;;;4.16;100.00